MSLC weather

La Cabaña Airport
La Cabaña, San Salvador, El Salvador

Public forecast

Using degrees Celsius for public forecast. Weather courtesy of forecast.io.

METAR (pilot weather report)

Closest report is Ilopango International Airport, 19.0 nm (35.2 km) SSE. Retrieved 2019/04/19 21:50 UTC (17 minutes ago):

MSSS 192150Z 19011KT 4000 HZ SCT027 SCT040CB 27/23 Q1011 A2987

TAF (pilot weather forecast)

Forecast is more than 12 hours old.

Closest forecast is Ilopango International Airport, 19.0 nm (35.2 km) SSE. Retrieved 2019/04/15 12:00 UTC (4 days ago):

TAF MSSS 150925Z 1512/1612 34007KT CAVOK TX32/1520Z TN22/1512Z FM151800 19010KT 9999 SCT037 FM160000 CAVOK FM160400 35003KT